createdAt,value
2022-10-05T13:05:59.039Z,102052.03
2022-10-05T13:08:49.798Z,102056.09
2022-10-05T13:11:55.945Z,102061.44
2022-10-05T13:15:07.789Z,102055.63
2022-10-05T13:18:04.960Z,102054.19
2022-10-05T13:20:45.448Z,102055.72
2022-10-05T13:23:25.894Z,102059.50
2022-10-05T13:26:11.445Z,102062.81
2022-10-05T13:29:11.060Z,102051.09
2022-10-05T13:31:46.152Z,102043.59
2022-10-05T13:34:32.140Z,102055.66
2022-10-05T13:37:33.876Z,102057.88
2022-10-05T13:40:06.673Z,102052.06
2022-10-05T13:42:52.720Z,102046.59
2022-10-05T13:45:30.055Z,102039.59
2022-10-05T13:48:34.496Z,102047.03
2022-10-05T13:51:59.209Z,102045.47
2022-10-05T13:54:50.969Z,102051.53
2022-10-05T13:57:51.650Z,102046.13
2022-10-05T14:00:26.811Z,102056.31
2022-10-05T14:02:56.828Z,102058.41
2022-10-05T14:05:27.002Z,102048.50
2022-10-05T14:08:02.607Z,102060.41
2022-10-05T14:10:42.051Z,102048.56
2022-10-05T14:13:23.318Z,102053.66
2022-10-05T14:16:01.754Z,102058.41
2022-10-05T14:18:33.494Z,102054.97
2022-10-05T14:21:08.937Z,102044.84
2022-10-05T14:23:35.932Z,102045.84
2022-10-05T14:26:31.556Z,102045.84
2022-10-05T14:28:58.312Z,102040.22
2022-10-05T14:31:51.267Z,102039.16
2022-10-05T14:34:32.822Z,102045.34
2022-10-05T14:37:05.048Z,102036.31
2022-10-05T14:39:34.592Z,102036.75
2022-10-05T14:42:15.338Z,102041.88
2022-10-05T14:44:42.139Z,102032.50
2022-10-05T14:47:22.903Z,102031.69
2022-10-05T14:50:15.057Z,102030.81
2022-10-05T14:52:51.625Z,102020.59
2022-10-05T14:55:37.833Z,102020.06
2022-10-05T14:58:28.053Z,102014.53
2022-10-05T15:01:13.703Z,102021.41
2022-10-05T15:04:03.901Z,102012.56
2022-10-05T15:07:03.297Z,102019.91
2022-10-05T15:10:22.597Z,102020.69
2022-10-05T15:12:50.475Z,102015.22
2022-10-05T15:15:38.643Z,102007.19
2022-10-05T15:18:31.772Z,102013.06
2022-10-05T15:21:34.129Z,102011.31
2022-10-05T15:24:07.809Z,102014.19
2022-10-05T15:26:43.478Z,102013.56
2022-10-05T15:29:36.242Z,102007.47
2022-10-05T15:32:24.829Z,102008.91
2022-10-05T15:35:28.015Z,102009.06
2022-10-05T15:38:27.479Z,102016.16
2022-10-05T15:41:06.203Z,102002.56
2022-10-05T15:43:58.576Z,101996.00
2022-10-05T15:46:35.879Z,101997.88
2022-10-05T15:49:38.286Z,102001.00
2022-10-05T15:52:07.881Z,102008.38
2022-10-05T15:55:06.954Z,102005.84
2022-10-05T15:58:01.802Z,102009.16
2022-10-05T16:00:30.258Z,102013.91
2022-10-05T16:03:18.228Z,102006.66
2022-10-05T16:06:08.833Z,102011.63
2022-10-05T16:09:25.807Z,102018.06
2022-10-05T16:12:18.886Z,102021.47
2022-10-05T16:14:54.505Z,102032.72
2022-10-05T16:17:59.473Z,102019.63
2022-10-05T16:21:04.768Z,102017.44
2022-10-05T16:24:18.845Z,102022.19
2022-10-05T16:26:59.732Z,102023.16
2022-10-05T16:29:54.310Z,102032.09
2022-10-05T16:32:30.139Z,102023.13
2022-10-05T16:34:59.376Z,102032.75
2022-10-05T16:37:50.101Z,102033.31
2022-10-05T16:40:41.508Z,102026.41
2022-10-05T16:43:26.491Z,102033.31
2022-10-05T16:46:19.121Z,102038.53
2022-10-05T16:48:54.166Z,102042.66
2022-10-05T16:51:43.733Z,102034.16
2022-10-05T16:54:23.857Z,102025.34
2022-10-05T16:56:59.600Z,102037.38
2022-10-05T17:00:01.787Z,102038.94
2022-10-05T17:03:06.283Z,102038.28
2022-10-05T17:06:20.729Z,102046.88
2022-10-05T17:09:12.554Z,102037.66
2022-10-05T17:11:57.333Z,102049.16
2022-10-05T17:14:54.462Z,102054.13
2022-10-05T17:17:27.412Z,102056.41
2022-10-05T17:20:12.984Z,102064.13
2022-10-05T17:22:51.137Z,102057.19
2022-10-05T17:25:24.239Z,102058.19
2022-10-05T17:28:15.084Z,102057.38
2022-10-05T17:31:13.035Z,102058.47
2022-10-05T17:34:26.335Z,102060.22
2022-10-05T17:37:17.462Z,102063.97
2022-10-05T17:39:52.451Z,102066.03
2022-10-05T17:42:40.275Z,102059.94
2022-10-05T17:45:11.971Z,102056.88
2022-10-05T17:47:57.855Z,102055.25
2022-10-05T17:51:02.986Z,102066.88
2022-10-05T17:54:04.493Z,102061.13
2022-10-05T17:56:54.400Z,102068.94
2022-10-05T17:59:44.734Z,102061.81
2022-10-05T18:02:40.627Z,102059.41
2022-10-05T18:05:12.555Z,102064.69
2022-10-05T18:07:40.773Z,102055.31
2022-10-05T18:10:11.726Z,102056.03
2022-10-05T18:13:04.648Z,102062.88
2022-10-05T18:15:31.367Z,102068.03
2022-10-05T18:18:20.067Z,102068.38
2022-10-05T18:21:29.856Z,102055.25
2022-10-05T18:23:59.673Z,102064.81
2022-10-05T18:26:59.441Z,102064.03
2022-10-05T18:30:03.300Z,102067.59
2022-10-05T18:32:56.016Z,102064.69
2022-10-05T18:35:56.880Z,102060.28
2022-10-05T18:38:52.912Z,102063.50
2022-10-05T18:41:46.346Z,102058.91
2022-10-05T18:44:35.212Z,102061.28
2022-10-05T18:47:33.668Z,102059.22
2022-10-05T18:50:18.716Z,102057.00
2022-10-05T18:53:09.997Z,102053.59
2022-10-05T18:55:45.748Z,102060.94
2022-10-05T18:58:22.452Z,102061.56
2022-10-05T19:01:05.390Z,102052.84
2022-10-05T19:03:49.573Z,102058.53
2022-10-05T19:06:30.014Z,102068.38
2022-10-05T19:09:24.126Z,102067.69
2022-10-05T19:12:05.357Z,102071.41
2022-10-05T19:14:41.498Z,102061.38
2022-10-05T19:17:10.755Z,102065.63
2022-10-05T19:19:57.586Z,102074.56
2022-10-05T19:22:45.892Z,102084.38
2022-10-05T19:25:39.479Z,102086.22
2022-10-05T19:28:23.094Z,102080.72
2022-10-05T19:31:11.720Z,102074.56
2022-10-05T19:34:16.603Z,102081.34
2022-10-05T19:36:49.268Z,102076.53
2022-10-05T19:39:31.165Z,102078.56
2022-10-05T19:42:22.437Z,102079.03
2022-10-05T19:45:15.163Z,102075.72
2022-10-05T19:48:07.681Z,102080.06
2022-10-05T19:50:38.603Z,102078.69
2022-10-05T19:53:14.021Z,102075.06
2022-10-05T19:55:43.787Z,102079.09
2022-10-05T19:58:28.654Z,102077.06
2022-10-05T20:00:55.601Z,102082.50
2022-10-05T20:03:29.275Z,102086.63
2022-10-05T20:06:08.895Z,102088.28
2022-10-05T20:08:43.863Z,102091.69
2022-10-05T20:11:12.003Z,102086.56
2022-10-05T20:13:47.419Z,102073.41
2022-10-05T20:16:35.587Z,102099.63
2022-10-05T20:19:34.894Z,102102.06
2022-10-05T20:22:35.012Z,102103.44
2022-10-05T20:25:29.214Z,102097.16
2022-10-05T20:27:57.076Z,102101.41
2022-10-05T20:30:27.493Z,102101.72
2022-10-05T20:32:58.255Z,102100.50
2022-10-05T20:35:27.870Z,102106.09
2022-10-05T20:37:59.506Z,102098.56
2022-10-05T20:40:29.073Z,102103.78
2022-10-05T20:42:56.829Z,102098.97
2022-10-05T20:45:23.538Z,102095.00
2022-10-05T20:47:51.026Z,102091.19
2022-10-05T20:50:17.821Z,102105.09
2022-10-05T20:52:44.626Z,102101.66
2022-10-05T20:55:11.960Z,102104.72
2022-10-05T20:57:42.318Z,102084.03
2022-10-05T21:00:12.962Z,102108.03
2022-10-05T21:02:39.611Z,102089.25
2022-10-05T21:05:07.685Z,102113.63
2022-10-05T21:07:35.018Z,102116.19
2022-10-05T21:10:03.873Z,102110.75
2022-10-05T21:12:30.705Z,102105.09
2022-10-05T21:14:57.518Z,102100.22
2022-10-05T21:17:24.236Z,102103.19
2022-10-05T21:19:52.586Z,102105.75
2022-10-05T21:22:19.479Z,102109.16
2022-10-05T21:24:46.028Z,102108.63
2022-10-05T21:27:12.621Z,102110.06
2022-10-05T21:29:41.106Z,102103.22
2022-10-05T21:32:12.039Z,102108.66
2022-10-05T21:34:39.784Z,102089.56
2022-10-05T21:37:08.085Z,102104.41
2022-10-05T21:39:35.445Z,102103.38
2022-10-05T21:42:02.286Z,102099.50
2022-10-05T21:44:28.799Z,102096.97
2022-10-05T21:46:56.567Z,102096.47
2022-10-05T21:49:23.955Z,102069.84
2022-10-05T21:52:00.684Z,102078.56
2022-10-05T21:54:28.668Z,102094.09
2022-10-05T21:56:57.487Z,102089.66
2022-10-05T21:59:26.884Z,102082.91
2022-10-05T22:01:54.160Z,102069.00
2022-10-05T22:04:20.921Z,102090.66
2022-10-05T22:06:49.082Z,102082.44
2022-10-05T22:09:15.665Z,102079.56
2022-10-05T22:11:42.439Z,102083.13
2022-10-05T22:14:09.169Z,102086.53
2022-10-05T22:16:38.678Z,102084.69
2022-10-05T22:19:10.740Z,102079.97
2022-10-05T22:21:41.537Z,102078.69
2022-10-05T22:24:11.393Z,102080.41
2022-10-05T22:26:41.977Z,102077.00
2022-10-05T22:29:09.658Z,102066.75
2022-10-05T22:31:36.827Z,102087.44
2022-10-05T22:34:03.486Z,102086.19
2022-10-05T22:36:30.188Z,102073.63
2022-10-05T22:38:56.879Z,102076.34
2022-10-05T22:41:23.691Z,102063.94
2022-10-05T22:43:51.292Z,102064.53
2022-10-05T22:46:18.641Z,102054.84
2022-10-05T22:48:45.266Z,102056.53
2022-10-05T22:51:12.540Z,102047.13
2022-10-05T22:53:39.189Z,102045.19
2022-10-05T22:56:08.373Z,102059.16
2022-10-05T22:58:35.549Z,102049.47
2022-10-05T23:01:04.830Z,102045.03
2022-10-05T23:03:32.548Z,102052.88
2022-10-05T23:06:14.069Z,102052.63
2022-10-05T23:08:41.808Z,102059.53
2022-10-05T23:11:16.762Z,102055.25
2022-10-05T23:13:44.005Z,102043.97
2022-10-05T23:16:16.697Z,102054.53
2022-10-05T23:18:44.649Z,102051.97
2022-10-05T23:21:12.091Z,102049.88
2022-10-05T23:23:40.711Z,102052.09
2022-10-05T23:26:09.840Z,102049.72
2022-10-05T23:28:38.391Z,102046.84
2022-10-05T23:31:07.349Z,102043.41
2022-10-05T23:33:34.871Z,102049.56
2022-10-05T23:36:04.810Z,102054.97
2022-10-05T23:38:32.190Z,102041.16
2022-10-05T23:40:59.774Z,102044.44
2022-10-05T23:43:27.316Z,102052.16
2022-10-05T23:45:54.073Z,102053.31
2022-10-05T23:48:21.420Z,102053.47
2022-10-05T23:50:49.500Z,102051.06
2022-10-05T23:53:17.278Z,102051.06
2022-10-05T23:55:43.871Z,102047.66
2022-10-05T23:58:11.093Z,102040.22
